Time;durP1;ratioP1;P1;durP2;ratioP2;P2;SDS_P1;SDS_P2;PMS_P1;PMS_P2;Temp;Humidity;BMP_temperature;BMP_pressure;BME280_temperature;BME280_humidity;BME280_pressure;Samples;Min_cycle;Max_cycle;Signal;HPM_P1;HPM_P2
2021/10/18 00:01:52;;;;;;;13.13;10.57;;;10.80;99.90;;;;;;5066605;28;20091;-75
2021/10/18 00:04:18;;;;;;;12.88;11.15;;;10.80;99.90;;;;;;5060258;28;20136;-75
2021/10/18 00:06:43;;;;;;;12.88;11.18;;;10.80;99.90;;;;;;5071476;28;20447;-75
2021/10/18 00:09:09;;;;;;;12.73;10.45;;;10.90;99.90;;;;;;5071934;28;20028;-77
2021/10/18 00:11:35;;;;;;;20.15;12.98;;;10.80;99.90;;;;;;5060674;28;20055;-76
2021/10/18 00:14:00;;;;;;;14.52;11.20;;;10.80;99.90;;;;;;5065269;28;20025;-75
2021/10/18 00:16:26;;;;;;;14.90;10.82;;;10.90;99.90;;;;;;5061912;28;20036;-74
2021/10/18 00:18:52;;;;;;;12.07;10.77;;;10.90;99.90;;;;;;5072197;28;20032;-75
2021/10/18 00:21:17;;;;;;;16.70;10.95;;;10.90;99.90;;;;;;5071911;28;20368;-75
2021/10/18 00:23:43;;;;;;;21.88;11.48;;;10.90;99.90;;;;;;5071815;28;20032;-76
2021/10/18 00:26:08;;;;;;;12.75;10.85;;;10.90;99.90;;;;;;5057809;28;20154;-76
2021/10/18 00:28:34;;;;;;;17.23;11.43;;;10.90;99.90;;;;;;5071194;28;20076;-76
2021/10/18 00:30:59;;;;;;;15.23;11.57;;;10.80;99.90;;;;;;5071969;28;20017;-75
2021/10/18 00:33:25;;;;;;;15.77;11.63;;;10.80;99.90;;;;;;5066082;28;20021;-76
2021/10/18 00:35:50;;;;;;;14.32;10.95;;;10.90;99.90;;;;;;5056030;28;20025;-74
2021/10/18 00:38:16;;;;;;;19.30;11.82;;;10.60;99.90;;;;;;5075874;28;20374;-76
2021/10/18 00:40:42;;;;;;;15.68;11.15;;;10.60;99.90;;;;;;5075536;28;20081;-75
2021/10/18 00:43:07;;;;;;;13.65;11.48;;;10.50;99.90;;;;;;5074683;28;20048;-76
2021/10/18 00:45:34;;;;;;;15.93;11.55;;;10.50;99.90;;;;;;5076026;28;20079;-76
2021/10/18 00:48:00;;;;;;;14.23;10.95;;;10.50;99.90;;;;;;5075206;28;20476;-75
2021/10/18 00:50:26;;;;;;;14.25;11.70;;;10.40;99.90;;;;;;5075337;28;20111;-75
2021/10/18 00:52:52;;;;;;;18.50;10.60;;;10.40;99.90;;;;;;5075089;28;20108;-74
2021/10/18 00:55:18;;;;;;;14.88;11.15;;;10.40;99.90;;;;;;5074591;28;20017;-76
2021/10/18 00:57:45;;;;;;;13.15;11.18;;;10.30;99.90;;;;;;5074964;28;20035;-75
2021/10/18 01:00:11;;;;;;;17.45;11.93;;;10.30;99.90;;;;;;5075396;28;20032;-75
2021/10/18 01:02:37;;;;;;;14.30;11.00;;;10.30;99.90;;;;;;5074544;28;20024;-75
2021/10/18 01:05:04;;;;;;;16.35;11.25;;;10.30;99.90;;;;;;5075333;28;20029;-76
2021/10/18 01:07:30;;;;;;;14.77;11.65;;;10.20;99.90;;;;;;5075671;28;20027;-76
2021/10/18 01:09:55;;;;;;;13.43;11.35;;;10.20;99.90;;;;;;5074582;28;20455;-75
2021/10/18 01:12:21;;;;;;;16.10;12.20;;;10.10;99.90;;;;;;5074726;28;20044;-74
2021/10/18 01:14:47;;;;;;;16.48;11.88;;;10.10;99.90;;;;;;5075269;28;20020;-74
2021/10/18 01:17:13;;;;;;;19.38;12.40;;;10.10;99.90;;;;;;5062768;28;20033;-75
2021/10/18 01:19:38;;;;;;;20.58;12.60;;;10.10;99.90;;;;;;5056024;28;20469;-75
2021/10/18 01:22:04;;;;;;;18.60;11.77;;;10.00;99.90;;;;;;5074618;28;20028;-76
2021/10/18 01:24:31;;;;;;;15.07;11.80;;;10.00;99.90;;;;;;5073883;28;20380;-75
2021/10/18 01:27:00;;;;;;;15.95;12.05;;;10.00;99.90;;;;;;5074572;28;20054;-75
2021/10/18 01:29:32;;;;;;;19.70;13.40;;;10.00;99.90;;;;;;5075015;28;20103;-75
2021/10/18 01:31:58;;;;;;;15.27;12.35;;;10.00;99.90;;;;;;5073988;28;20020;-74
2021/10/18 01:34:24;;;;;;;15.35;12.10;;;9.90;99.90;;;;;;5074834;28;20051;-75
2021/10/18 01:36:54;;;;;;;18.92;11.95;;;9.90;99.90;;;;;;5074450;28;20016;-75
2021/10/18 01:39:19;;;;;;;16.20;13.23;;;9.90;99.90;;;;;;5076221;28;20040;-75
2021/10/18 01:41:45;;;;;;;18.70;12.82;;;9.90;99.90;;;;;;5072792;28;20037;-74
2021/10/18 01:44:11;;;;;;;17.67;12.57;;;9.90;99.90;;;;;;5064308;28;20064;-75
2021/10/18 01:46:36;;;;;;;17.80;13.13;;;9.90;99.90;;;;;;5074120;28;20048;-75
2021/10/18 01:49:02;;;;;;;15.32;13.13;;;9.90;99.90;;;;;;5074382;28;20028;-76
2021/10/18 01:51:27;;;;;;;15.20;12.68;;;9.80;99.90;;;;;;5074660;28;20035;-76
2021/10/18 01:53:53;;;;;;;19.38;13.95;;;9.80;99.90;;;;;;5073591;28;20029;-76
2021/10/18 01:56:18;;;;;;;20.25;13.38;;;9.80;99.90;;;;;;5074715;28;20346;-76
2021/10/18 01:58:44;;;;;;;16.00;13.80;;;9.80;99.90;;;;;;5073669;28;20111;-75
2021/10/18 02:01:09;;;;;;;17.50;12.57;;;9.70;99.90;;;;;;5074661;28;20032;-76
2021/10/18 02:03:37;;;;;;;16.23;12.52;;;9.60;99.90;;;;;;5074368;28;20028;-75
2021/10/18 02:06:02;;;;;;;19.05;12.57;;;9.60;99.90;;;;;;5073108;28;20473;-77
2021/10/18 02:08:28;;;;;;;23.42;12.75;;;9.50;99.90;;;;;;5061280;28;20064;-76
2021/10/18 02:10:53;;;;;;;18.90;13.88;;;9.40;99.90;;;;;;5059188;28;20052;-75
2021/10/18 02:13:19;;;;;;;16.20;12.50;;;9.40;99.90;;;;;;5073737;28;20029;-75
2021/10/18 02:15:44;;;;;;;18.45;12.60;;;9.40;99.90;;;;;;5073351;28;20047;-76
2021/10/18 02:18:10;;;;;;;20.38;14.23;;;9.30;99.90;;;;;;5074195;28;20021;-76
2021/10/18 02:20:35;;;;;;;16.65;12.75;;;9.20;99.90;;;;;;5073045;28;20028;-76
2021/10/18 02:23:01;;;;;;;22.35;13.70;;;9.20;99.90;;;;;;5073405;28;20170;-74
2021/10/18 02:25:27;;;;;;;22.40;13.85;;;9.20;99.90;;;;;;5073998;28;20380;-74
2021/10/18 02:27:52;;;;;;;18.75;13.95;;;9.10;99.90;;;;;;5072591;28;20044;-76
2021/10/18 02:30:18;;;;;;;18.58;12.23;;;9.10;99.90;;;;;;5074456;28;20114;-76
2021/10/18 02:32:43;;;;;;;20.70;14.27;;;9.10;99.90;;;;;;5073584;28;20021;-74
2021/10/18 02:35:10;;;;;;;18.88;13.38;;;9.10;99.90;;;;;;5065390;28;20469;-76
2021/10/18 02:37:36;;;;;;;17.42;12.98;;;9.00;99.90;;;;;;5067352;28;20025;-74
2021/10/18 02:40:02;;;;;;;19.48;13.48;;;9.00;99.90;;;;;;5073343;28;20449;-76
2021/10/18 02:42:27;;;;;;;22.75;13.90;;;9.00;99.90;;;;;;5072751;28;20072;-74
2021/10/18 02:44:53;;;;;;;24.83;13.95;;;8.90;99.90;;;;;;5073574;28;20460;-75
2021/10/18 02:47:18;;;;;;;21.17;13.63;;;8.90;99.90;;;;;;5073930;28;20021;-75
2021/10/18 02:49:50;;;;;;;20.85;14.05;;;8.90;99.90;;;;;;5072642;28;20028;-75
2021/10/18 02:52:18;;;;;;;23.55;12.93;;;8.80;99.90;;;;;;5073376;28;20047;-75
2021/10/18 02:54:43;;;;;;;17.42;13.32;;;8.80;99.90;;;;;;5073013;28;20031;-77
2021/10/18 02:57:09;;;;;;;17.20;13.15;;;8.80;99.90;;;;;;5073252;28;20025;-76
2021/10/18 02:59:34;;;;;;;17.55;12.68;;;8.70;99.90;;;;;;5055370;28;20029;-75
2021/10/18 03:02:00;;;;;;;18.10;13.35;;;8.70;99.90;;;;;;5072593;28;20027;-75
2021/10/18 03:04:26;;;;;;;17.15;12.98;;;8.70;99.90;;;;;;5073370;28;20365;-75
2021/10/18 03:06:51;;;;;;;23.48;14.57;;;8.60;99.90;;;;;;5072737;28;20146;-75
2021/10/18 03:09:17;;;;;;;19.63;13.90;;;8.60;99.90;;;;;;5072753;28;20025;-75
2021/10/18 03:11:42;;;;;;;18.65;13.25;;;8.60;99.90;;;;;;5073129;28;20024;-75
2021/10/18 03:14:08;;;;;;;15.45;13.75;;;8.50;99.90;;;;;;5073049;28;20107;-76
2021/10/18 03:16:33;;;;;;;18.45;13.57;;;8.50;99.90;;;;;;5072489;28;20055;-75
2021/10/18 03:18:59;;;;;;;15.15;12.75;;;8.50;99.90;;;;;;5072622;28;20064;-75
2021/10/18 03:21:25;;;;;;;21.10;13.50;;;8.50;99.90;;;;;;5072956;28;20021;-75
2021/10/18 03:23:50;;;;;;;20.38;13.63;;;8.50;99.90;;;;;;5071742;28;20087;-73
2021/10/18 03:26:16;;;;;;;17.17;13.25;;;8.50;99.90;;;;;;5073037;28;20063;-74
2021/10/18 03:28:42;;;;;;;19.55;14.63;;;8.50;99.90;;;;;;5073167;28;20027;-74
2021/10/18 03:31:08;;;;;;;18.52;14.18;;;8.50;99.90;;;;;;5072005;28;20108;-76
2021/10/18 03:33:35;;;;;;;21.50;15.05;;;8.40;99.90;;;;;;5072835;28;20103;-76
2021/10/18 03:36:00;;;;;;;19.20;13.68;;;8.40;99.90;;;;;;5071954;28;20460;-77
2021/10/18 03:38:26;;;;;;;20.02;13.73;;;8.50;99.90;;;;;;5071536;28;20070;-76
2021/10/18 03:40:51;;;;;;;21.50;14.90;;;8.40;99.90;;;;;;5072149;28;20021;-75
2021/10/18 03:43:18;;;;;;;21.80;13.65;;;8.30;99.90;;;;;;5073282;28;20040;-76
2021/10/18 03:45:43;;;;;;;18.20;14.05;;;8.40;99.90;;;;;;5071592;28;20149;-76
2021/10/18 03:48:09;;;;;;;20.52;13.32;;;8.30;99.90;;;;;;5072278;28;20028;-76
2021/10/18 03:50:38;;;;;;;25.02;13.60;;;8.30;99.90;;;;;;5072117;28;20028;-76
2021/10/18 03:53:03;;;;;;;19.88;13.70;;;8.20;99.90;;;;;;5070487;28;20024;-75
2021/10/18 03:55:29;;;;;;;16.60;13.30;;;8.30;99.90;;;;;;5060182;28;20085;-76
2021/10/18 03:57:54;;;;;;;19.88;14.52;;;8.20;99.90;;;;;;5072117;28;20495;-76
2021/10/18 04:00:20;;;;;;;20.90;14.48;;;8.20;99.90;;;;;;5056981;28;20031;-76
2021/10/18 04:02:45;;;;;;;18.90;13.98;;;8.20;99.90;;;;;;5072436;28;20029;-76
2021/10/18 04:05:11;;;;;;;17.33;14.40;;;8.20;99.90;;;;;;5057716;28;20138;-75
2021/10/18 04:07:38;;;;;;;19.10;14.18;;;8.20;99.90;;;;;;5064039;28;20029;-76
2021/10/18 04:10:07;;;;;;;19.35;14.45;;;8.10;99.90;;;;;;5067265;28;20038;-76
2021/10/18 04:12:33;;;;;;;22.55;14.93;;;8.10;99.90;;;;;;5072131;28;20035;-76
2021/10/18 04:14:58;;;;;;;18.40;14.93;;;8.10;99.90;;;;;;5072528;28;20389;-75
2021/10/18 04:17:24;;;;;;;19.85;14.00;;;8.10;99.90;;;;;;5072386;28;20056;-76
2021/10/18 04:19:51;;;;;;;32.92;15.25;;;8.10;99.90;;;;;;5071277;28;20103;-75
2021/10/18 04:22:17;;;;;;;21.17;15.80;;;8.10;99.90;;;;;;5072370;28;20032;-75
2021/10/18 04:24:42;;;;;;;22.27;14.15;;;8.10;99.90;;;;;;5072697;28;20082;-76
2021/10/18 04:27:08;;;;;;;26.25;15.77;;;8.10;99.90;;;;;;5072151;28;20016;-76
2021/10/18 04:29:33;;;;;;;18.98;14.38;;;8.10;99.90;;;;;;5068043;28;20028;-76
2021/10/18 04:32:02;;;;;;;26.02;14.75;;;8.10;99.90;;;;;;5061827;28;20131;-76
2021/10/18 04:34:27;;;;;;;17.55;13.93;;;8.10;99.90;;;;;;5071087;28;20480;-76
2021/10/18 04:36:54;;;;;;;26.38;15.95;;;8.10;99.90;;;;;;5072439;28;20027;-76
2021/10/18 04:39:20;;;;;;;21.65;15.05;;;8.10;99.90;;;;;;5058334;28;20035;-76
2021/10/18 04:41:46;;;;;;;19.90;14.73;;;8.10;99.90;;;;;;5071517;28;20028;-74
2021/10/18 04:44:11;;;;;;;24.50;15.13;;;8.10;99.90;;;;;;5072374;28;20072;-76
2021/10/18 04:46:37;;;;;;;25.08;14.88;;;8.00;99.90;;;;;;5067890;28;20465;-76
2021/10/18 04:49:03;;;;;;;25.23;16.20;;;8.10;99.90;;;;;;5061063;28;20044;-75
2021/10/18 04:51:28;;;;;;;22.10;15.20;;;8.10;99.90;;;;;;5072250;28;20052;-76
2021/10/18 04:53:54;;;;;;;29.42;15.73;;;8.10;99.90;;;;;;5071904;28;20484;-74
2021/10/18 04:56:19;;;;;;;20.42;14.77;;;8.10;99.90;;;;;;5071379;28;20058;-76
2021/10/18 04:58:45;;;;;;;23.65;14.48;;;8.00;99.90;;;;;;5071912;28;20021;-76
2021/10/18 05:01:10;;;;;;;22.35;14.80;;;8.00;99.90;;;;;;5072421;28;20025;-76
2021/10/18 05:03:36;;;;;;;27.85;15.80;;;8.00;99.90;;;;;;5071403;28;20123;-75
2021/10/18 05:06:02;;;;;;;23.65;15.77;;;8.10;99.90;;;;;;5071875;28;20392;-76
2021/10/18 05:08:28;;;;;;;25.73;16.33;;;8.00;99.90;;;;;;5071146;28;20025;-74
2021/10/18 05:10:54;;;;;;;25.20;15.35;;;8.00;99.90;;;;;;5071969;28;20062;-75
2021/10/18 05:13:19;;;;;;;24.17;15.90;;;8.10;99.90;;;;;;5071761;28;20017;-76
2021/10/18 05:15:48;;;;;;;28.92;16.27;;;8.00;99.90;;;;;;5070542;28;20048;-76
2021/10/18 05:18:14;;;;;;;22.80;15.48;;;8.00;99.90;;;;;;5072223;28;20063;-76
2021/10/18 05:20:39;;;;;;;24.45;15.45;;;7.90;99.90;;;;;;5074958;28;20021;-76
2021/10/18 05:23:05;;;;;;;31.23;16.98;;;8.00;99.90;;;;;;5063899;28;20071;-75
2021/10/18 05:25:31;;;;;;;23.60;14.98;;;8.00;99.90;;;;;;5071611;28;20044;-76
2021/10/18 05:27:56;;;;;;;26.08;16.73;;;8.00;99.90;;;;;;5074423;28;20529;-75
2021/10/18 05:30:27;;;;;;;30.92;16.70;;;7.90;99.90;;;;;;5074145;28;20031;-76
2021/10/18 05:32:53;;;;;;;24.80;15.73;;;7.90;99.90;;;;;;5071582;28;20488;-75
2021/10/18 05:35:19;;;;;;;26.92;16.58;;;7.90;99.90;;;;;;5063869;28;20043;-76
2021/10/18 05:37:46;;;;;;;28.92;17.67;;;7.90;99.90;;;;;;5074299;28;20017;-76
2021/10/18 05:40:13;;;;;;;26.25;17.17;;;7.90;99.90;;;;;;5075330;28;20496;-74
2021/10/18 05:42:39;;;;;;;29.95;18.08;;;7.90;99.90;;;;;;5074900;28;20062;-74
2021/10/18 05:45:06;;;;;;;30.67;17.25;;;7.90;99.90;;;;;;5068613;28;20116;-74
2021/10/18 05:47:31;;;;;;;35.45;16.85;;;7.90;99.90;;;;;;5067263;28;20381;-75
2021/10/18 05:49:59;;;;;;;28.73;17.27;;;7.90;99.90;;;;;;5070593;28;20024;-76
2021/10/18 05:52:27;;;;;;;24.88;16.88;;;7.80;99.90;;;;;;5064053;28;20031;-74
2021/10/18 05:54:52;;;;;;;26.65;16.98;;;7.90;99.90;;;;;;5074636;28;20029;-75
2021/10/18 05:57:18;;;;;;;27.15;16.85;;;7.90;99.90;;;;;;5074391;28;20453;-75
2021/10/18 05:59:43;;;;;;;27.52;17.33;;;7.90;99.90;;;;;;5073492;28;20025;-76
2021/10/18 06:02:09;;;;;;;28.77;18.33;;;7.90;99.90;;;;;;5074708;28;20104;-77
2021/10/18 06:04:37;;;;;;;27.23;17.88;;;7.90;99.90;;;;;;5074514;28;20124;-75
2021/10/18 06:07:06;;;;;;;24.88;17.45;;;7.90;99.90;;;;;;5069144;28;20021;-76
2021/10/18 06:09:31;;;;;;;34.10;17.60;;;7.90;99.90;;;;;;5065631;28;20400;-76
2021/10/18 06:11:57;;;;;;;28.58;18.45;;;7.90;99.90;;;;;;5072943;28;20028;-76
2021/10/18 06:14:22;;;;;;;26.55;17.52;;;7.90;99.90;;;;;;5065832;28;20025;-76
2021/10/18 06:16:48;;;;;;;35.08;18.55;;;7.90;99.90;;;;;;5068519;28;20027;-74
2021/10/18 06:19:13;;;;;;;29.02;18.15;;;7.90;99.90;;;;;;5073475;28;20021;-75
2021/10/18 06:21:39;;;;;;;34.47;18.58;;;7.90;99.90;;;;;;5076287;28;20098;-75
2021/10/18 06:24:04;;;;;;;34.00;19.20;;;7.90;99.90;;;;;;5073661;28;20393;-76
2021/10/18 06:26:30;;;;;;;28.92;17.83;;;7.90;99.90;;;;;;5073130;28;20138;-76
2021/10/18 06:28:56;;;;;;;26.98;17.73;;;7.90;99.90;;;;;;5073540;28;20506;-75
2021/10/18 06:31:21;;;;;;;27.25;17.55;;;7.90;99.90;;;;;;5073812;28;20016;-75
2021/10/18 06:33:47;;;;;;;27.52;18.17;;;7.90;99.90;;;;;;5073337;28;20131;-75
2021/10/18 06:36:12;;;;;;;35.88;18.48;;;8.00;99.90;;;;;;5073932;28;20020;-74
2021/10/18 06:38:38;;;;;;;32.13;18.83;;;8.00;99.90;;;;;;5073795;28;20031;-75
2021/10/18 06:41:03;;;;;;;32.63;19.90;;;8.00;99.90;;;;;;5072779;28;20477;-75
2021/10/18 06:43:29;;;;;;;32.42;19.50;;;8.00;99.90;;;;;;5078834;28;20054;-76
2021/10/18 06:45:55;;;;;;;30.98;20.02;;;8.10;99.90;;;;;;5094156;28;20028;-75
2021/10/18 06:48:20;;;;;;;31.65;19.15;;;8.10;99.90;;;;;;5092892;28;20084;-75
2021/10/18 06:50:47;;;;;;;29.10;19.42;;;8.10;99.90;;;;;;5093487;28;20142;-76
2021/10/18 06:53:18;;;;;;;30.17;19.90;;;8.20;99.90;;;;;;5093571;28;20048;-76
2021/10/18 06:55:44;;;;;;;37.28;21.48;;;8.20;99.90;;;;;;5093008;28;20056;-76
2021/10/18 06:58:10;;;;;;;30.48;19.13;;;8.30;99.90;;;;;;5092467;28;20028;-77
2021/10/18 07:00:36;;;;;;;34.03;20.10;;;8.30;99.90;;;;;;5081087;28;20182;-76
2021/10/18 07:03:02;;;;;;;41.40;20.77;;;8.40;99.90;;;;;;5092770;28;20400;-77
2021/10/18 07:05:28;;;;;;;32.35;19.25;;;8.40;99.90;;;;;;5093940;28;20032;-76
2021/10/18 07:07:54;;;;;;;40.78;21.85;;;8.50;99.90;;;;;;5093424;28;20031;-76
2021/10/18 07:10:19;;;;;;;32.85;20.45;;;8.50;99.90;;;;;;5078957;28;20024;-76
2021/10/18 07:12:45;;;;;;;31.65;20.33;;;8.60;99.90;;;;;;5093266;28;20012;-75
2021/10/18 07:15:10;;;;;;;34.97;21.25;;;8.60;99.90;;;;;;5093047;28;20030;-75
2021/10/18 07:17:36;;;;;;;36.00;20.55;;;8.70;99.90;;;;;;5094260;28;20464;-76
2021/10/18 07:20:05;;;;;;;38.58;22.05;;;8.80;99.90;;;;;;5079633;28;20035;-77
2021/10/18 07:22:35;;;;;;;31.80;20.90;;;8.80;99.90;;;;;;5092809;28;20055;-76
2021/10/18 07:25:01;;;;;;;;;;;8.90;99.90;;;;;;5093997;28;20192;-77
2021/10/18 07:27:27;;;;;;;33.50;20.17;;;9.00;99.90;;;;;;5093761;28;19908;-77
2021/10/18 07:29:52;;;;;;;35.70;21.88;;;9.00;99.90;;;;;;5092490;28;20376;-77
2021/10/18 07:32:19;;;;;;;34.33;21.70;;;9.10;99.90;;;;;;5093422;28;20030;-78
2021/10/18 07:34:44;;;;;;;32.83;20.67;;;9.10;99.90;;;;;;5093154;28;20024;-76
2021/10/18 07:37:10;;;;;;;33.65;20.77;;;9.20;99.90;;;;;;5092510;28;20070;-78
2021/10/18 07:39:36;;;;;;;42.10;22.50;;;9.30;99.90;;;;;;5092906;28;20031;-76
2021/10/18 07:42:04;;;;;;;39.63;21.98;;;9.40;99.90;;;;;;5085887;28;20385;-75
2021/10/18 07:44:30;;;;;;;32.83;21.40;;;9.40;99.90;;;;;;5071627;28;20038;-77
2021/10/18 07:46:59;;;;;;;32.42;21.73;;;9.40;99.90;;;;;;5072462;28;20099;-78
2021/10/18 07:49:27;;;;;;;34.15;22.02;;;9.50;99.90;;;;;;5072989;28;20078;-77
2021/10/18 07:51:54;;;;;;;33.33;21.35;;;9.60;99.90;;;;;;5071864;28;20032;-75
2021/10/18 07:54:19;;;;;;;34.28;21.20;;;9.70;99.90;;;;;;5073020;28;20345;-75
2021/10/18 07:56:45;;;;;;;31.65;21.48;;;9.70;99.90;;;;;;5069285;28;20025;-77
2021/10/18 07:59:10;;;;;;;32.55;20.67;;;9.80;99.90;;;;;;5061702;28;20020;-78
2021/10/18 08:01:36;;;;;;;32.58;21.02;;;9.90;99.90;;;;;;5072840;28;20067;-77
2021/10/18 08:04:03;;;;;;;33.80;20.73;;;9.90;99.90;;;;;;5072026;28;20035;-77
2021/10/18 08:06:29;;;;;;;33.00;21.33;;;10.00;99.90;;;;;;5071439;28;20465;-77
2021/10/18 08:08:56;;;;;;;37.90;22.30;;;10.10;99.90;;;;;;5072061;28;20029;-77
2021/10/18 08:11:21;;;;;;;35.53;21.60;;;10.10;99.90;;;;;;5071657;28;20033;-77
2021/10/18 08:13:48;;;;;;;35.00;20.92;;;10.20;99.90;;;;;;5072578;28;20024;-76
2021/10/18 08:16:14;;;;;;;34.03;20.63;;;10.20;99.90;;;;;;5072421;28;20056;-78
2021/10/18 08:18:40;;;;;;;30.85;20.70;;;10.30;99.90;;;;;;5057620;28;20132;-77
2021/10/18 08:21:07;;;;;;;31.50;20.52;;;10.40;99.90;;;;;;5072525;28;20067;-77
2021/10/18 08:23:33;;;;;;;33.75;21.17;;;10.50;99.90;;;;;;5072325;28;20087;-77
2021/10/18 08:26:03;;;;;;;36.40;21.23;;;10.60;99.90;;;;;;5068124;28;20499;-77
2021/10/18 08:28:29;;;;;;;37.35;21.88;;;10.60;99.90;;;;;;5072971;28;20423;-76
2021/10/18 08:30:55;;;;;;;36.70;21.10;;;10.70;99.90;;;;;;5071779;28;20036;-76
2021/10/18 08:33:24;;;;;;;32.15;21.35;;;10.70;99.90;;;;;;5071564;28;20115;-77
2021/10/18 08:35:50;;;;;;;39.17;20.27;;;10.70;99.90;;;;;;5072591;28;20089;-75
2021/10/18 08:41:10;;;;;;;33.40;20.80;;;10.80;99.90;;;;;;5057529;28;20083;-76
2021/10/18 08:46:04;;;;;;;39.85;21.48;;;10.80;99.90;;;;;;5092543;28;20468;-77
2021/10/18 08:48:30;;;;;;;36.60;20.27;;;10.80;99.90;;;;;;5092103;28;20031;-76
2021/10/18 08:50:56;;;;;;;36.65;20.75;;;10.80;99.90;;;;;;5092970;28;20059;-76
2021/10/18 08:53:22;;;;;;;33.70;19.67;;;10.80;99.90;;;;;;5095421;28;20031;-75
2021/10/18 08:55:47;;;;;;;31.92;20.63;;;10.80;99.90;;;;;;5096575;28;20467;-77
2021/10/18 08:58:13;;;;;;;33.83;20.08;;;10.90;99.90;;;;;;5095393;28;20019;-76
2021/10/18 09:00:48;;;;;;;33.13;20.95;;;11.10;99.90;;;;;;5083119;28;20023;-77
2021/10/18 09:03:32;;;;;;;33.30;20.20;;;11.20;99.90;;;;;;5096582;28;20080;-76
2021/10/18 09:06:17;;;;;;;33.42;20.00;;;11.40;99.90;;;;;;5095986;28;20036;-77
2021/10/18 09:08:52;;;;;;;29.02;19.42;;;11.60;99.90;;;;;;5094414;28;20061;-75
2021/10/18 09:11:28;;;;;;;30.10;19.00;;;11.70;99.90;;;;;;5095396;28;20353;-76
2021/10/18 09:13:54;;;;;;;30.38;18.52;;;11.80;99.90;;;;;;5095190;28;20023;-75
2021/10/18 09:16:33;;;;;;;25.30;18.38;;;11.80;99.90;;;;;;5095028;28;20012;-76
2021/10/18 09:19:14;;;;;;;25.02;18.08;;;11.80;99.90;;;;;;5095358;28;20111;-77
2021/10/18 09:22:03;;;;;;;26.35;17.88;;;11.80;99.90;;;;;;5095394;28;20024;-76
2021/10/18 09:24:34;;;;;;;25.90;16.83;;;11.90;99.90;;;;;;5082999;28;20114;-76
2021/10/18 09:27:03;;;;;;;25.77;17.20;;;11.90;99.90;;;;;;5095270;28;20024;-77
2021/10/18 09:29:45;;;;;;;29.95;18.42;;;11.90;99.90;;;;;;5095121;28;20065;-76
2021/10/18 09:32:28;;;;;;;32.63;19.50;;;12.00;99.90;;;;;;5084477;28;20070;-76
2021/10/18 09:35:14;;;;;;;29.02;19.35;;;12.00;99.90;;;;;;5094997;28;20024;-75
2021/10/18 09:37:42;;;;;;;26.55;17.83;;;12.10;99.90;;;;;;5095011;28;20138;-76
2021/10/18 09:40:28;;;;;;;25.23;17.92;;;12.20;99.90;;;;;;5095806;28;20032;-75
2021/10/18 09:43:07;;;;;;;29.25;17.90;;;12.30;99.90;;;;;;5078795;28;20041;-76
2021/10/18 09:45:35;;;;;;;29.70;17.48;;;12.30;99.90;;;;;;5064723;28;20040;-76
2021/10/18 10:55:51;;;;;;;21.90;17.00;;;14.10;99.90;;;;;;5073029;28;20035;-77
2021/10/18 10:58:37;;;;;;;24.17;16.50;;;14.10;99.90;;;;;;5073208;28;20032;-77
2021/10/18 11:01:04;;;;;;;20.80;15.15;;;14.10;99.90;;;;;;5072404;28;20058;-77
2021/10/18 11:03:39;;;;;;;21.10;15.52;;;14.20;99.90;;;;;;5072951;28;20020;-77
2021/10/18 11:06:15;;;;;;;19.42;15.02;;;14.20;99.90;;;;;;5072691;28;20094;-78
2021/10/18 11:08:43;;;;;;;17.02;14.02;;;14.20;99.90;;;;;;5058291;28;20048;-77
2021/10/18 11:11:19;;;;;;;19.70;15.68;;;14.20;99.90;;;;;;5073164;28;20112;-77
2021/10/18 11:13:51;;;;;;;20.55;15.45;;;14.30;99.90;;;;;;5073183;28;20023;-76
2021/10/18 11:16:22;;;;;;;20.70;15.07;;;14.30;99.90;;;;;;5073127;28;20032;-77
2021/10/18 11:18:50;;;;;;;22.35;14.52;;;14.40;99.90;;;;;;5060758;28;20403;-76
2021/10/18 11:21:20;;;;;;;26.20;15.13;;;14.40;99.90;;;;;;5075649;28;20021;-76
2021/10/18 11:23:59;;;;;;;20.02;15.50;;;14.40;99.90;;;;;;5072529;28;20044;-77
2021/10/18 11:26:28;;;;;;;19.27;15.57;;;14.50;99.90;;;;;;5073540;28;20079;-76
2021/10/18 11:28:55;;;;;;;19.05;14.35;;;14.50;99.90;;;;;;5072000;28;20501;-76
2021/10/18 11:31:30;;;;;;;21.45;15.05;;;14.50;99.90;;;;;;5073233;28;20060;-76
2021/10/18 11:34:13;;;;;;;22.20;15.43;;;14.50;99.90;;;;;;5072753;28;20104;-77
2021/10/18 11:36:42;;;;;;;23.45;16.02;;;14.50;99.90;;;;;;5058013;28;20042;-77
2021/10/18 11:39:14;;;;;;;26.75;15.23;;;14.50;99.90;;;;;;5072926;28;20107;-78
2021/10/18 11:41:58;;;;;;;18.83;14.52;;;14.50;99.90;;;;;;5070761;28;20048;-77
2021/10/18 11:44:38;;;;;;;20.83;15.07;;;14.50;99.90;;;;;;5086381;28;20044;-77
2021/10/18 11:47:05;;;;;;;18.23;13.90;;;14.60;99.90;;;;;;5080419;28;20028;-78
2021/10/18 11:49:31;;;;;;;20.85;14.95;;;14.50;99.90;;;;;;5092123;28;20556;-78
2021/10/18 11:51:57;;;;;;;20.52;14.93;;;14.50;99.90;;;;;;5078467;28;20107;-78
2021/10/18 11:54:22;;;;;;;22.38;15.23;;;14.50;99.90;;;;;;5082749;28;20052;-77
2021/10/18 11:56:54;;;;;;;19.02;14.60;;;14.50;99.90;;;;;;5092006;28;20460;-78
2021/10/18 11:59:20;;;;;;;24.38;15.60;;;14.60;99.90;;;;;;5092995;28;20381;-78
2021/10/18 12:01:45;;;;;;;21.77;15.38;;;14.60;99.90;;;;;;5092364;28;20035;-77
2021/10/18 12:04:11;;;;;;;20.50;14.85;;;14.60;99.90;;;;;;5092120;28;20067;-77
2021/10/18 12:06:47;;;;;;;24.02;15.38;;;14.60;99.90;;;;;;5092254;28;20027;-76
2021/10/18 12:09:25;;;;;;;21.35;15.65;;;14.60;99.90;;;;;;5081363;28;20069;-76
2021/10/18 12:11:53;;;;;;;28.63;15.25;;;14.60;99.90;;;;;;5092739;28;20093;-77
2021/10/18 12:14:19;;;;;;;26.65;14.23;;;14.70;99.90;;;;;;5093799;28;20440;-77
2021/10/18 12:16:44;;;;;;;22.02;14.27;;;14.70;99.90;;;;;;5092672;28;20027;-77
2021/10/18 12:19:11;;;;;;;21.38;14.55;;;14.80;99.90;;;;;;5085872;28;20102;-78
2021/10/18 12:21:39;;;;;;;20.55;14.43;;;14.80;99.90;;;;;;5085824;28;20023;-77
2021/10/18 12:24:22;;;;;;;19.95;15.07;;;14.80;99.90;;;;;;5073888;28;20058;-77
2021/10/18 12:26:54;;;;;;;19.67;15.07;;;14.80;99.90;;;;;;5092760;28;20016;-79
2021/10/18 12:29:25;;;;;;;21.02;14.52;;;14.80;99.90;;;;;;5094803;28;20411;-79
2021/10/18 12:31:56;;;;;;;24.10;14.20;;;14.90;99.90;;;;;;5095602;28;20027;-80
2021/10/18 12:34:27;;;;;;;17.80;13.43;;;14.90;99.90;;;;;;5096560;28;20024;-79
2021/10/18 12:37:06;;;;;;;;;;;15.00;99.90;;;;;;5096778;28;20375;-79
2021/10/18 12:39:55;;;;;;;15.38;12.77;;;15.00;99.90;;;;;;5095339;28;19926;-80
2021/10/18 12:42:20;;;;;;;17.48;13.60;;;15.10;99.90;;;;;;5086926;28;20407;-79
2021/10/18 12:44:48;;;;;;;20.10;14.32;;;15.10;99.90;;;;;;5061321;28;20045;-79
2021/10/18 12:47:23;;;;;;;19.00;13.45;;;15.20;99.90;;;;;;5075413;28;20431;-78
2021/10/18 12:49:59;;;;;;;18.77;13.95;;;15.20;99.90;;;;;;5061525;28;20066;-78
2021/10/18 12:52:29;;;;;;;17.77;12.70;;;15.20;99.90;;;;;;5076207;28;20033;-79
2021/10/18 12:54:59;;;;;;;20.45;13.30;;;15.30;99.90;;;;;;5074906;28;20035;-78
2021/10/18 12:57:28;;;;;;;19.58;13.23;;;15.40;99.90;;;;;;5067096;28;20025;-78
2021/10/18 13:00:09;;;;;;;18.60;12.75;;;15.40;99.90;;;;;;5070787;28;20480;-80
2021/10/18 13:02:40;;;;;;;16.35;12.30;;;15.50;99.90;;;;;;5075399;28;20054;-78
2021/10/18 13:05:05;;;;;;;20.15;13.10;;;15.70;99.90;;;;;;5061037;28;20130;-78
2021/10/18 13:07:32;;;;;;;15.82;12.63;;;15.80;99.90;;;;;;5074844;28;20020;-79
2021/10/18 13:09:58;;;;;;;16.88;11.60;;;15.90;99.90;;;;;;5074857;28;20057;-78
2021/10/18 13:12:26;;;;;;;16.38;11.27;;;16.00;99.90;;;;;;5075900;28;20110;-78
2021/10/18 13:14:52;;;;;;;13.15;11.35;;;16.10;99.90;;;;;;5074622;28;20037;-79
2021/10/18 13:17:18;;;;;;;14.68;11.82;;;16.10;99.90;;;;;;5075674;28;20496;-79
2021/10/18 13:19:44;;;;;;;15.18;12.18;;;16.10;99.90;;;;;;5065020;28;20033;-78
2021/10/18 13:22:09;;;;;;;18.85;12.60;;;16.10;99.90;;;;;;5072043;28;20835;-78
2021/10/18 13:24:35;;;;;;;17.38;13.85;;;16.00;99.90;;;;;;5071541;28;20487;-77
2021/10/18 13:27:01;;;;;;;14.13;11.68;;;15.90;99.90;;;;;;5076092;28;20053;-78
2021/10/18 13:29:27;;;;;;;21.40;11.98;;;15.80;99.90;;;;;;5074943;28;20138;-78
2021/10/18 13:31:53;;;;;;;15.43;11.95;;;15.70;99.90;;;;;;5075244;28;20048;-76
2021/10/18 13:34:18;;;;;;;16.30;12.57;;;15.60;99.90;;;;;;5075796;28;20031;-77
2021/10/18 13:36:44;;;;;;;20.50;11.68;;;15.60;99.90;;;;;;5074815;28;20016;-78
2021/10/18 13:39:09;;;;;;;16.45;12.48;;;15.50;99.90;;;;;;5062133;28;20068;-79
2021/10/18 13:41:35;;;;;;;20.17;12.15;;;15.50;99.90;;;;;;5060331;28;20061;-77
2021/10/18 13:44:01;;;;;;;15.00;11.77;;;15.50;99.90;;;;;;5076896;28;20028;-78
2021/10/18 13:46:27;;;;;;;18.17;12.52;;;15.50;99.90;;;;;;5063079;28;20021;-78
2021/10/18 13:48:53;;;;;;;13.57;11.55;;;15.50;99.90;;;;;;5075021;28;20020;-77